sensor_id;sensor_type;location;lat;lon;timestamp;pressure;altitude;pressure_sealevel;temperature;humidity
38400;BME280;24180;42.676;23.320;2024-01-07T00:00:28;93542.13;;;4.15;83.97
38400;BME280;24180;42.676;23.320;2024-01-07T00:02:53;93535.19;;;4.16;84.63
38400;BME280;24180;42.676;23.320;2024-01-07T00:05:19;93529.97;;;4.12;83.61
38400;BME280;24180;42.676;23.320;2024-01-07T00:07:44;93530.91;;;4.08;84.36
38400;BME280;24180;42.676;23.320;2024-01-07T00:10:09;93504.75;;;3.90;83.82
38400;BME280;24180;42.676;23.320;2024-01-07T00:12:35;93509.38;;;4.09;84.25
38400;BME280;24180;42.676;23.320;2024-01-07T00:15:01;93506.94;;;4.12;84.65
38400;BME280;24180;42.676;23.320;2024-01-07T00:17:26;93516.94;;;4.05;84.87
38400;BME280;24180;42.676;23.320;2024-01-07T00:19:52;93507.41;;;3.93;84.23
38400;BME280;24180;42.676;23.320;2024-01-07T00:22:17;93506.91;;;4.00;85.66
38400;BME280;24180;42.676;23.320;2024-01-07T00:24:43;93498.53;;;4.12;83.63
38400;BME280;24180;42.676;23.320;2024-01-07T00:27:08;93494.66;;;4.06;84.53
38400;BME280;24180;42.676;23.320;2024-01-07T00:29:34;93489.13;;;4.04;84.07
38400;BME280;24180;42.676;23.320;2024-01-07T00:32:01;93477.41;;;4.03;84.87
38400;BME280;24180;42.676;23.320;2024-01-07T00:34:26;93487.53;;;4.11;84.07
38400;BME280;24180;42.676;23.320;2024-01-07T00:36:52;93474.47;;;3.92;84.85
38400;BME280;24180;42.676;23.320;2024-01-07T00:39:18;93462.66;;;3.87;84.59
38400;BME280;24180;42.676;23.320;2024-01-07T00:41:43;93450.03;;;3.82;85.62
38400;BME280;24180;42.676;23.320;2024-01-07T00:44:09;93463.44;;;4.00;83.97
38400;BME280;24180;42.676;23.320;2024-01-07T00:46:34;93461.59;;;4.01;84.32
38400;BME280;24180;42.676;23.320;2024-01-07T00:49:00;93453.53;;;4.11;84.88
38400;BME280;24180;42.676;23.320;2024-01-07T00:51:25;93423.88;;;3.97;85.06
38400;BME280;24180;42.676;23.320;2024-01-07T00:53:51;93433.28;;;4.06;83.74
38400;BME280;24180;42.676;23.320;2024-01-07T00:56:16;93432.22;;;4.07;83.55
38400;BME280;24180;42.676;23.320;2024-01-07T00:58:41;93423.28;;;4.13;84.82
38400;BME280;24180;42.676;23.320;2024-01-07T01:01:07;93426.69;;;4.17;83.51
38400;BME280;24180;42.676;23.320;2024-01-07T01:03:32;93432.09;;;4.03;85.21
38400;BME280;24180;42.676;23.320;2024-01-07T01:05:58;93429.66;;;4.07;85.45
38400;BME280;24180;42.676;23.320;2024-01-07T01:08:24;93425.84;;;4.13;85.28
38400;BME280;24180;42.676;23.320;2024-01-07T01:10:49;93418.59;;;4.15;85.31
38400;BME280;24180;42.676;23.320;2024-01-07T01:13:15;93416.25;;;4.22;84.98
38400;BME280;24180;42.676;23.320;2024-01-07T01:15:40;93413.47;;;4.27;83.85
38400;BME280;24180;42.676;23.320;2024-01-07T01:18:06;93395.13;;;4.13;84.90
38400;BME280;24180;42.676;23.320;2024-01-07T01:20:31;93382.16;;;4.18;85.22
38400;BME280;24180;42.676;23.320;2024-01-07T01:22:56;93378.19;;;4.33;84.21
38400;BME280;24180;42.676;23.320;2024-01-07T01:25:22;93380.00;;;4.32;85.29
38400;BME280;24180;42.676;23.320;2024-01-07T01:27:47;93360.19;;;4.29;85.61
38400;BME280;24180;42.676;23.320;2024-01-07T01:30:13;93356.34;;;4.35;84.90
38400;BME280;24180;42.676;23.320;2024-01-07T01:32:39;93359.00;;;4.39;84.31
38400;BME280;24180;42.676;23.320;2024-01-07T01:35:05;93344.81;;;4.41;84.98
38400;BME280;24180;42.676;23.320;2024-01-07T01:37:31;93332.88;;;4.33;84.77
38400;BME280;24180;42.676;23.320;2024-01-07T01:39:58;93337.44;;;4.40;85.01
38400;BME280;24180;42.676;23.320;2024-01-07T01:42:24;93329.91;;;4.43;84.46
38400;BME280;24180;42.676;23.320;2024-01-07T01:44:49;93325.72;;;4.39;84.18
38400;BME280;24180;42.676;23.320;2024-01-07T01:47:15;93312.38;;;4.46;84.36
38400;BME280;24180;42.676;23.320;2024-01-07T01:49:41;93306.00;;;4.39;83.82
38400;BME280;24180;42.676;23.320;2024-01-07T01:52:08;93289.91;;;4.27;85.02
38400;BME280;24180;42.676;23.320;2024-01-07T01:54:34;93280.09;;;4.41;85.33
38400;BME280;24180;42.676;23.320;2024-01-07T01:57:00;93286.06;;;4.45;83.48
38400;BME280;24180;42.676;23.320;2024-01-07T01:59:28;93284.78;;;4.39;85.42
38400;BME280;24180;42.676;23.320;2024-01-07T02:01:54;93271.47;;;4.33;84.75
38400;BME280;24180;42.676;23.320;2024-01-07T02:04:20;93277.44;;;4.37;85.28
38400;BME280;24180;42.676;23.320;2024-01-07T02:06:46;93289.25;;;4.42;83.82
38400;BME280;24180;42.676;23.320;2024-01-07T02:09:11;93288.81;;;4.40;84.78
38400;BME280;24180;42.676;23.320;2024-01-07T02:11:37;93288.81;;;4.40;84.43
38400;BME280;24180;42.676;23.320;2024-01-07T02:14:02;93297.03;;;4.46;83.51
38400;BME280;24180;42.676;23.320;2024-01-07T02:16:28;93286.16;;;4.49;83.39
38400;BME280;24180;42.676;23.320;2024-01-07T02:18:53;93268.66;;;4.51;83.92
38400;BME280;24180;42.676;23.320;2024-01-07T02:21:19;93259.25;;;4.55;84.71
38400;BME280;24180;42.676;23.320;2024-01-07T02:23:44;93257.78;;;4.54;84.01
38400;BME280;24180;42.676;23.320;2024-01-07T02:26:10;93240.69;;;4.58;83.99
38400;BME280;24180;42.676;23.320;2024-01-07T02:28:35;93207.97;;;4.51;83.20
38400;BME280;24180;42.676;23.320;2024-01-07T02:31:01;93199.13;;;4.49;83.79
38400;BME280;24180;42.676;23.320;2024-01-07T02:33:26;93208.94;;;4.47;83.57
38400;BME280;24180;42.676;23.320;2024-01-07T02:35:52;93200.41;;;4.55;83.51
38400;BME280;24180;42.676;23.320;2024-01-07T02:38:17;93204.03;;;4.54;83.11
38400;BME280;24180;42.676;23.320;2024-01-07T02:40:43;93201.63;;;4.33;84.48
38400;BME280;24180;42.676;23.320;2024-01-07T02:43:08;93208.38;;;4.25;84.54
38400;BME280;24180;42.676;23.320;2024-01-07T02:45:34;93200.47;;;4.30;85.43
38400;BME280;24180;42.676;23.320;2024-01-07T02:47:59;93185.47;;;4.16;84.78
38400;BME280;24180;42.676;23.320;2024-01-07T02:50:25;93196.13;;;4.31;84.64
38400;BME280;24180;42.676;23.320;2024-01-07T02:52:50;93200.78;;;4.41;85.57
38400;BME280;24180;42.676;23.320;2024-01-07T02:55:16;93201.78;;;4.52;84.17
38400;BME280;24180;42.676;23.320;2024-01-07T02:57:41;93200.41;;;4.55;84.47
38400;BME280;24180;42.676;23.320;2024-01-07T03:00:07;93198.25;;;4.57;84.30
38400;BME280;24180;42.676;23.320;2024-01-07T03:02:33;93222.88;;;4.61;85.37
38400;BME280;24180;42.676;23.320;2024-01-07T03:04:58;93211.91;;;4.61;85.17
38400;BME280;24180;42.676;23.320;2024-01-07T03:07:24;93231.03;;;4.79;83.89
38400;BME280;24180;42.676;23.320;2024-01-07T03:09:50;93225.47;;;4.77;83.65
38400;BME280;24180;42.676;23.320;2024-01-07T03:12:16;93224.00;;;4.76;83.54
38400;BME280;24180;42.676;23.320;2024-01-07T03:14:42;93226.47;;;4.73;82.40
38400;BME280;24180;42.676;23.320;2024-01-07T03:17:07;93241.66;;;4.81;82.57
38400;BME280;24180;42.676;23.320;2024-01-07T03:19:33;93247.94;;;4.56;84.05
38400;BME280;24180;42.676;23.320;2024-01-07T03:21:58;93254.56;;;4.57;85.65
38400;BME280;24180;42.676;23.320;2024-01-07T03:24:24;93252.25;;;4.80;83.94
38400;BME280;24180;42.676;23.320;2024-01-07T03:26:49;93252.94;;;4.93;85.01
38400;BME280;24180;42.676;23.320;2024-01-07T03:29:15;93243.72;;;5.04;83.81
38400;BME280;24180;42.676;23.320;2024-01-07T03:31:40;93248.34;;;4.98;85.16
38400;BME280;24180;42.676;23.320;2024-01-07T03:34:06;93240.97;;;4.97;85.66
38400;BME280;24180;42.676;23.320;2024-01-07T03:36:31;93236.78;;;5.04;85.22
38400;BME280;24180;42.676;23.320;2024-01-07T03:38:57;93240.56;;;5.10;85.40
38400;BME280;24180;42.676;23.320;2024-01-07T03:41:22;93234.66;;;5.22;86.36
38400;BME280;24180;42.676;23.320;2024-01-07T03:43:48;93243.09;;;5.23;86.67
38400;BME280;24180;42.676;23.320;2024-01-07T03:46:15;93229.16;;;5.36;86.71
38400;BME280;24180;42.676;23.320;2024-01-07T03:48:44;93223.84;;;5.45;87.17
38400;BME280;24180;42.676;23.320;2024-01-07T03:51:09;93220.78;;;5.55;87.60
38400;BME280;24180;42.676;23.320;2024-01-07T03:53:35;93221.03;;;5.50;86.69
38400;BME280;24180;42.676;23.320;2024-01-07T03:56:00;93224.91;;;5.59;87.63
38400;BME280;24180;42.676;23.320;2024-01-07T03:58:26;93217.38;;;5.67;88.49
38400;BME280;24180;42.676;23.320;2024-01-07T04:00:51;93217.59;;;5.77;88.35
38400;BME280;24180;42.676;23.320;2024-01-07T04:03:17;93207.78;;;5.79;88.01
38400;BME280;24180;42.676;23.320;2024-01-07T04:05:42;93205.63;;;5.81;88.36
38400;BME280;24180;42.676;23.320;2024-01-07T04:08:10;93205.69;;;6.01;87.30
38400;BME280;24180;42.676;23.320;2024-01-07T04:10:36;93203.28;;;6.08;87.57
38400;BME280;24180;42.676;23.320;2024-01-07T04:13:02;93205.09;;;6.08;88.12
38400;BME280;24180;42.676;23.320;2024-01-07T04:15:27;93198.16;;;6.08;87.98
38400;BME280;24180;42.676;23.320;2024-01-07T04:17:53;93190.03;;;6.06;88.18
38400;BME280;24180;42.676;23.320;2024-01-07T04:20:18;93189.22;;;6.02;88.36
38400;BME280;24180;42.676;23.320;2024-01-07T04:22:44;93181.81;;;5.97;88.28
38400;BME280;24180;42.676;23.320;2024-01-07T04:25:09;93188.25;;;5.91;89.20
38400;BME280;24180;42.676;23.320;2024-01-07T04:27:36;93185.44;;;5.80;89.62
38400;BME280;24180;42.676;23.320;2024-01-07T04:30:02;93191.66;;;5.79;89.92
38400;BME280;24180;42.676;23.320;2024-01-07T04:32:28;93189.50;;;5.81;90.77
38400;BME280;24180;42.676;23.320;2024-01-07T04:34:54;93189.50;;;5.81;90.12
38400;BME280;24180;42.676;23.320;2024-01-07T04:37:20;93166.06;;;5.82;90.26
38400;BME280;24180;42.676;23.320;2024-01-07T04:39:45;93164.81;;;5.92;89.95
38400;BME280;24180;42.676;23.320;2024-01-07T04:42:10;93162.16;;;5.89;90.43
38400;BME280;24180;42.676;23.320;2024-01-07T04:44:36;93158.94;;;5.92;90.30
38400;BME280;24180;42.676;23.320;2024-01-07T04:49:45;93172.09;;;5.90;90.26
38400;BME280;24180;42.676;23.320;2024-01-07T04:52:11;93175.72;;;5.89;89.95
38400;BME280;24180;42.676;23.320;2024-01-07T04:54:36;93172.84;;;5.91;90.18
38400;BME280;24180;42.676;23.320;2024-01-07T04:57:02;93183.69;;;5.84;90.83
38400;BME280;24180;42.676;23.320;2024-01-07T04:59:27;93191.75;;;5.67;91.72
38400;BME280;24180;42.676;23.320;2024-01-07T05:01:53;93160.72;;;5.72;90.67
38400;BME280;24180;42.676;23.320;2024-01-07T05:04:18;93181.03;;;5.80;91.14
38400;BME280;24180;42.676;23.320;2024-01-07T05:06:44;93169.03;;;5.49;91.57
38400;BME280;24180;42.676;23.320;2024-01-07T05:09:10;93165.50;;;5.73;91.64
38400;BME280;24180;42.676;23.320;2024-01-07T05:11:39;93144.66;;;5.75;91.28
38400;BME280;24180;42.676;23.320;2024-01-07T05:14:05;93162.69;;;5.78;91.48
38400;BME280;24180;42.676;23.320;2024-01-07T05:16:30;93153.88;;;5.60;91.40
38400;BME280;24180;42.676;23.320;2024-01-07T05:18:57;93156.84;;;5.62;92.28
38400;BME280;24180;42.676;23.320;2024-01-07T05:21:22;93158.50;;;5.54;92.27
38400;BME280;24180;42.676;23.320;2024-01-07T05:23:48;93170.50;;;5.66;92.04
38400;BME280;24180;42.676;23.320;2024-01-07T05:26:13;93167.75;;;5.75;91.42
38400;BME280;24180;42.676;23.320;2024-01-07T05:28:38;93167.69;;;5.71;90.91
38400;BME280;24180;42.676;23.320;2024-01-07T05:31:04;93166.88;;;5.87;90.61
38400;BME280;24180;42.676;23.320;2024-01-07T05:33:29;93151.28;;;5.76;90.71
38400;BME280;24180;42.676;23.320;2024-01-07T05:35:55;93133.91;;;5.69;90.63
38400;BME280;24180;42.676;23.320;2024-01-07T05:38:20;93167.84;;;5.63;92.05
38400;BME280;24180;42.676;23.320;2024-01-07T05:40:46;93164.38;;;5.55;91.78
38400;BME280;24180;42.676;23.320;2024-01-07T05:43:11;93150.41;;;5.68;91.43
38400;BME280;24180;42.676;23.320;2024-01-07T05:45:37;93145.41;;;5.75;91.38
38400;BME280;24180;42.676;23.320;2024-01-07T05:48:02;93122.00;;;5.61;90.32
38400;BME280;24180;42.676;23.320;2024-01-07T05:50:28;93150.28;;;5.65;91.37
38400;BME280;24180;42.676;23.320;2024-01-07T05:52:53;93157.75;;;5.54;90.85
38400;BME280;24180;42.676;23.320;2024-01-07T05:55:19;93164.53;;;5.62;90.64
38400;BME280;24180;42.676;23.320;2024-01-07T05:57:44;93151.78;;;5.66;90.13
38400;BME280;24180;42.676;23.320;2024-01-07T06:00:10;93162.47;;;5.52;91.27
38400;BME280;24180;42.676;23.320;2024-01-07T06:02:38;93174.13;;;5.65;89.86
38400;BME280;24180;42.676;23.320;2024-01-07T06:05:03;93159.22;;;5.71;89.75
38400;BME280;24180;42.676;23.320;2024-01-07T06:07:29;93159.22;;;5.71;90.44
38400;BME280;24180;42.676;23.320;2024-01-07T06:09:54;93147.63;;;5.77;89.57
38400;BME280;24180;42.676;23.320;2024-01-07T06:12:20;93129.88;;;5.68;90.34
38400;BME280;24180;42.676;23.320;2024-01-07T06:14:45;93145.00;;;5.73;90.00
38400;BME280;24180;42.676;23.320;2024-01-07T06:17:11;93149.06;;;5.74;90.13
38400;BME280;24180;42.676;23.320;2024-01-07T06:19:36;93154.69;;;5.64;89.33
38400;BME280;24180;42.676;23.320;2024-01-07T06:22:02;93151.44;;;5.67;90.38
38400;BME280;24180;42.676;23.320;2024-01-07T06:24:27;93145.41;;;5.75;90.53
38400;BME280;24180;42.676;23.320;2024-01-07T06:26:53;93144.84;;;5.66;89.92
38400;BME280;24180;42.676;23.320;2024-01-07T06:29:18;93162.72;;;5.63;90.19
38400;BME280;24180;42.676;23.320;2024-01-07T06:31:44;93148.88;;;5.67;90.31
38400;BME280;24180;42.676;23.320;2024-01-07T06:34:10;93158.25;;;5.59;90.53
38400;BME280;24180;42.676;23.320;2024-01-07T06:36:39;93168.81;;;5.74;90.92
38400;BME280;24180;42.676;23.320;2024-01-07T06:39:04;93162.75;;;5.82;90.09
38400;BME280;24180;42.676;23.320;2024-01-07T06:41:30;93172.28;;;5.81;89.92
38400;BME280;24180;42.676;23.320;2024-01-07T06:43:55;93179.41;;;5.72;90.35
38400;BME280;24180;42.676;23.320;2024-01-07T06:46:22;93181.31;;;5.75;90.50
38400;BME280;24180;42.676;23.320;2024-01-07T06:48:47;93182.63;;;5.85;89.98
38400;BME280;24180;42.676;23.320;2024-01-07T06:51:14;93190.84;;;5.75;90.34
38400;BME280;24180;42.676;23.320;2024-01-07T06:53:58;93187.66;;;5.81;90.50
38400;BME280;24180;42.676;23.320;2024-01-07T06:56:23;93170.53;;;5.86;90.88
38400;BME280;24180;42.676;23.320;2024-01-07T06:58:49;93185.59;;;5.87;90.58
38400;BME280;24180;42.676;23.320;2024-01-07T07:01:20;93188.50;;;5.86;90.71
38400;BME280;24180;42.676;23.320;2024-01-07T07:03:47;93177.63;;;5.92;90.57
38400;BME280;24180;42.676;23.320;2024-01-07T07:06:12;93192.53;;;5.87;90.62
38400;BME280;24180;42.676;23.320;2024-01-07T07:08:38;93192.28;;;5.92;90.16
38400;BME280;24180;42.676;23.320;2024-01-07T07:11:03;93188.56;;;6.05;89.36
38400;BME280;24180;42.676;23.320;2024-01-07T07:13:29;93181.41;;;6.14;88.94
38400;BME280;24180;42.676;23.320;2024-01-07T07:15:54;93174.13;;;6.16;88.47
38400;BME280;24180;42.676;23.320;2024-01-07T07:18:20;93153.91;;;6.15;89.11
38400;BME280;24180;42.676;23.320;2024-01-07T07:20:45;93172.97;;;6.33;88.54
38400;BME280;24180;42.676;23.320;2024-01-07T07:23:11;93161.38;;;6.39;87.98
38400;BME280;24180;42.676;23.320;2024-01-07T07:25:36;93165.94;;;6.49;88.50
38400;BME280;24180;42.676;23.320;2024-01-07T07:28:02;93162.03;;;6.56;88.27
38400;BME280;24180;42.676;23.320;2024-01-07T07:30:28;93169.91;;;6.66;87.20
38400;BME280;24180;42.676;23.320;2024-01-07T07:32:55;93180.59;;;6.68;85.94
38400;BME280;24180;42.676;23.320;2024-01-07T07:35:20;93173.38;;;6.74;85.42
38400;BME280;24180;42.676;23.320;2024-01-07T07:37:46;93184.91;;;6.84;85.15
38400;BME280;24180;42.676;23.320;2024-01-07T07:40:12;93193.84;;;6.70;86.52
38400;BME280;24180;42.676;23.320;2024-01-07T07:42:38;93180.84;;;6.83;85.69
38400;BME280;24180;42.676;23.320;2024-01-07T07:45:04;93175.13;;;6.89;85.83
38400;BME280;24180;42.676;23.320;2024-01-07T07:47:30;93163.13;;;6.97;85.46
38400;BME280;24180;42.676;23.320;2024-01-07T07:49:56;93154.38;;;7.02;85.15
38400;BME280;24180;42.676;23.320;2024-01-07T07:52:22;93158.72;;;6.97;85.63
38400;BME280;24180;42.676;23.320;2024-01-07T07:54:53;93173.28;;;6.90;84.40
38400;BME280;24180;42.676;23.320;2024-01-07T07:57:18;93175.91;;;6.93;85.80
38400;BME280;24180;42.676;23.320;2024-01-07T07:59:47;93164.44;;;7.10;85.41
38400;BME280;24180;42.676;23.320;2024-01-07T08:02:13;93147.59;;;7.13;84.93
38400;BME280;24180;42.676;23.320;2024-01-07T08:04:38;93168.56;;;7.15;84.10
38400;BME280;24180;42.676;23.320;2024-01-07T08:07:06;93155.50;;;7.27;83.78
38400;BME280;24180;42.676;23.320;2024-01-07T08:09:32;93163.34;;;7.34;83.30
38400;BME280;24180;42.676;23.320;2024-01-07T08:11:58;93177.41;;;7.40;82.62
38400;BME280;24180;42.676;23.320;2024-01-07T08:14:23;93173.44;;;7.23;83.20
38400;BME280;24180;42.676;23.320;2024-01-07T08:16:49;93169.91;;;7.32;82.20
38400;BME280;24180;42.676;23.320;2024-01-07T08:19:14;93158.09;;;7.50;81.75
38400;BME280;24180;42.676;23.320;2024-01-07T08:21:40;93155.16;;;7.52;81.43
38400;BME280;24180;42.676;23.320;2024-01-07T08:24:05;93164.00;;;7.54;81.33
38400;BME280;24180;42.676;23.320;2024-01-07T08:26:31;93164.09;;;7.61;80.46
38400;BME280;24180;42.676;23.320;2024-01-07T08:28:56;93171.13;;;7.64;80.41
38400;BME280;24180;42.676;23.320;2024-01-07T08:31:22;93154.31;;;7.71;80.97
38400;BME280;24180;42.676;23.320;2024-01-07T08:33:47;93160.41;;;7.85;79.88
38400;BME280;24180;42.676;23.320;2024-01-07T08:36:13;93148.66;;;7.88;81.31
38400;BME280;24180;42.676;23.320;2024-01-07T08:38:38;93149.06;;;7.90;80.92
38400;BME280;24180;42.676;23.320;2024-01-07T08:41:04;93161.78;;;7.79;81.42
38400;BME280;24180;42.676;23.320;2024-01-07T08:43:30;93167.31;;;7.81;82.23
38400;BME280;24180;42.676;23.320;2024-01-07T08:45:55;93165.66;;;7.92;80.92
38400;BME280;24180;42.676;23.320;2024-01-07T08:48:21;93165.34;;;7.98;81.25
38400;BME280;24180;42.676;23.320;2024-01-07T08:50:46;93160.00;;;8.13;79.35
38400;BME280;24180;42.676;23.320;2024-01-07T08:53:11;93159.78;;;8.26;79.35
38400;BME280;24180;42.676;23.320;2024-01-07T08:55:37;93156.53;;;8.29;79.11
38400;BME280;24180;42.676;23.320;2024-01-07T08:58:03;93156.69;;;8.40;77.43
38400;BME280;24180;42.676;23.320;2024-01-07T09:00:29;93121.31;;;8.36;78.43
38400;BME280;24180;42.676;23.320;2024-01-07T09:02:56;93127.78;;;8.57;77.65
38400;BME280;24180;42.676;23.320;2024-01-07T09:05:22;93153.09;;;8.85;76.98
38400;BME280;24180;42.676;23.320;2024-01-07T09:07:49;93145.00;;;8.87;75.40
38400;BME280;24180;42.676;23.320;2024-01-07T09:10:15;93145.47;;;8.96;76.04
38400;BME280;24180;42.676;23.320;2024-01-07T09:12:40;93152.50;;;8.99;76.22
38400;BME280;24180;42.676;23.320;2024-01-07T09:15:06;93153.25;;;9.03;75.79
38400;BME280;24180;42.676;23.320;2024-01-07T09:17:34;93157.06;;;9.13;76.16
38400;BME280;24180;42.676;23.320;2024-01-07T09:20:00;93160.72;;;9.12;74.12
38400;BME280;24180;42.676;23.320;2024-01-07T09:22:25;93161.16;;;9.21;74.07
38400;BME280;24180;42.676;23.320;2024-01-07T09:24:50;93160.91;;;9.33;72.63
38400;BME280;24180;42.676;23.320;2024-01-07T09:27:16;93143.84;;;9.21;73.96
38400;BME280;24180;42.676;23.320;2024-01-07T09:29:41;93151.28;;;9.30;74.01
38400;BME280;24180;42.676;23.320;2024-01-07T09:32:07;93156.19;;;9.42;74.00
38400;BME280;24180;42.676;23.320;2024-01-07T09:34:32;93158.09;;;9.52;72.64
38400;BME280;24180;42.676;23.320;2024-01-07T09:36:58;93145.94;;;9.57;72.29
38400;BME280;24180;42.676;23.320;2024-01-07T09:39:23;93148.53;;;9.60;73.50
38400;BME280;24180;42.676;23.320;2024-01-07T09:41:49;93135.00;;;9.74;71.19
38400;BME280;24180;42.676;23.320;2024-01-07T09:44:14;93142.06;;;9.84;72.43
38400;BME280;24180;42.676;23.320;2024-01-07T09:46:41;93141.41;;;9.98;71.55
38400;BME280;24180;42.676;23.320;2024-01-07T09:49:08;93143.69;;;10.17;69.20
38400;BME280;24180;42.676;23.320;2024-01-07T09:51:35;93151.84;;;10.23;69.01
38400;BME280;24180;42.676;23.320;2024-01-07T09:54:03;93152.94;;;10.15;68.72
38400;BME280;24180;42.676;23.320;2024-01-07T09:56:44;93154.66;;;9.89;69.60
38400;BME280;24180;42.676;23.320;2024-01-07T09:59:16;93156.19;;;10.05;69.22
38400;BME280;24180;42.676;23.320;2024-01-07T10:01:42;93150.31;;;10.11;69.55
38400;BME280;24180;42.676;23.320;2024-01-07T10:04:08;93141.50;;;10.23;70.16
38400;BME280;24180;42.676;23.320;2024-01-07T10:06:33;93141.72;;;10.66;67.62
38400;BME280;24180;42.676;23.320;2024-01-07T10:08:59;93130.31;;;11.03;66.41
38400;BME280;24180;42.676;23.320;2024-01-07T10:11:24;93133.63;;;11.75;64.10
38400;BME280;24180;42.676;23.320;2024-01-07T10:13:50;93126.78;;;12.42;61.57
38400;BME280;24180;42.676;23.320;2024-01-07T10:16:18;93114.00;;;12.79;59.88
38400;BME280;24180;42.676;23.320;2024-01-07T10:18:44;93119.59;;;12.74;60.90
38400;BME280;24180;42.676;23.320;2024-01-07T10:21:09;93102.19;;;13.23;59.49
38400;BME280;24180;42.676;23.320;2024-01-07T10:23:34;93096.69;;;13.14;58.54
38400;BME280;24180;42.676;23.320;2024-01-07T10:26:00;93099.72;;;13.09;58.60
38400;BME280;24180;42.676;23.320;2024-01-07T10:28:27;93093.91;;;12.91;58.58
38400;BME280;24180;42.676;23.320;2024-01-07T10:30:53;93094.09;;;12.62;59.32
38400;BME280;24180;42.676;23.320;2024-01-07T10:33:18;93085.44;;;12.06;60.03
38400;BME280;24180;42.676;23.320;2024-01-07T10:35:56;93080.25;;;12.17;58.33
38400;BME280;24180;42.676;23.320;2024-01-07T10:38:22;93073.91;;;12.25;58.97
38400;BME280;24180;42.676;23.320;2024-01-07T10:40:50;93072.91;;;11.97;58.26
38400;BME280;24180;42.676;23.320;2024-01-07T10:43:17;93075.88;;;12.03;59.71
38400;BME280;24180;42.676;23.320;2024-01-07T10:45:46;93073.63;;;12.05;60.87
38400;BME280;24180;42.676;23.320;2024-01-07T10:48:17;93075.06;;;12.17;59.07
38400;BME280;24180;42.676;23.320;2024-01-07T10:50:45;93072.38;;;12.38;58.58
38400;BME280;24180;42.676;23.320;2024-01-07T10:53:14;93075.31;;;12.40;58.55
38400;BME280;24180;42.676;23.320;2024-01-07T10:55:52;93082.34;;;12.40;56.87
38400;BME280;24180;42.676;23.320;2024-01-07T10:58:20;93079.50;;;12.16;57.51
38400;BME280;24180;42.676;23.320;2024-01-07T11:00:46;93073.69;;;11.87;58.80
38400;BME280;24180;42.676;23.320;2024-01-07T11:03:29;93079.97;;;11.75;58.37
38400;BME280;24180;42.676;23.320;2024-01-07T11:06:02;93070.97;;;12.23;57.20
38400;BME280;24180;42.676;23.320;2024-01-07T11:08:37;93070.84;;;13.03;54.43
38400;BME280;24180;42.676;23.320;2024-01-07T11:11:16;93074.28;;;12.90;54.59
38400;BME280;24180;42.676;23.320;2024-01-07T11:13:41;93078.34;;;12.91;55.68
38400;BME280;24180;42.676;23.320;2024-01-07T11:16:08;93084.53;;;12.52;57.14
38400;BME280;24180;42.676;23.320;2024-01-07T11:18:46;93074.13;;;12.55;57.83
38400;BME280;24180;42.676;23.320;2024-01-07T11:21:21;93077.47;;;12.52;57.87
38400;BME280;24180;42.676;23.320;2024-01-07T11:23:47;93059.84;;;12.26;59.02
38400;BME280;24180;42.676;23.320;2024-01-07T11:26:12;93082.06;;;12.23;60.69
38400;BME280;24180;42.676;23.320;2024-01-07T11:28:44;93082.13;;;12.13;59.36
38400;BME280;24180;42.676;23.320;2024-01-07T11:31:10;93086.16;;;12.21;59.58
38400;BME280;24180;42.676;23.320;2024-01-07T11:33:47;93078.34;;;12.28;59.05
38400;BME280;24180;42.676;23.320;2024-01-07T11:36:16;93075.81;;;12.14;59.62
38400;BME280;24180;42.676;23.320;2024-01-07T11:38:48;93068.03;;;12.17;59.59
38400;BME280;24180;42.676;23.320;2024-01-07T11:41:14;93061.75;;;12.11;58.40
38400;BME280;24180;42.676;23.320;2024-01-07T11:43:59;93076.59;;;12.07;57.77
38400;BME280;24180;42.676;23.320;2024-01-07T11:46:29;93075.94;;;11.60;59.82
38400;BME280;24180;42.676;23.320;2024-01-07T11:48:58;93083.75;;;11.24;61.15
38400;BME280;24180;42.676;23.320;2024-01-07T11:51:28;93087.44;;;11.34;60.69
38400;BME280;24180;42.676;23.320;2024-01-07T11:53:54;93080.06;;;11.39;60.11
38400;BME280;24180;42.676;23.320;2024-01-07T11:56:20;93067.84;;;11.40;60.40
38400;BME280;24180;42.676;23.320;2024-01-07T11:58:45;93086.31;;;11.53;60.83
38400;BME280;24180;42.676;23.320;2024-01-07T12:01:11;93080.38;;;11.59;60.92
38400;BME280;24180;42.676;23.320;2024-01-07T12:03:37;93074.88;;;11.39;60.08
38400;BME280;24180;42.676;23.320;2024-01-07T12:06:03;93059.72;;;11.34;60.12
38400;BME280;24180;42.676;23.320;2024-01-07T12:08:29;93073.00;;;11.61;60.86
38400;BME280;24180;42.676;23.320;2024-01-07T12:10:56;93075.25;;;11.31;61.37
38400;BME280;24180;42.676;23.320;2024-01-07T12:13:22;93081.53;;;11.26;61.48
38400;BME280;24180;42.676;23.320;2024-01-07T12:15:47;93067.13;;;11.18;62.90
38400;BME280;24180;42.676;23.320;2024-01-07T12:18:14;93079.69;;;10.87;64.70
38400;BME280;24180;42.676;23.320;2024-01-07T12:20:40;93082.22;;;10.62;65.71
38400;BME280;24180;42.676;23.320;2024-01-07T12:23:09;93085.19;;;10.64;65.11
38400;BME280;24180;42.676;23.320;2024-01-07T12:25:35;93085.94;;;10.61;65.68
38400;BME280;24180;42.676;23.320;2024-01-07T12:28:02;93087.72;;;10.43;64.90
38400;BME280;24180;42.676;23.320;2024-01-07T12:30:27;93095.84;;;10.31;64.55
38400;BME280;24180;42.676;23.320;2024-01-07T12:32:53;93079.50;;;10.19;65.99
38400;BME280;24180;42.676;23.320;2024-01-07T12:35:19;93075.09;;;10.20;66.06
38400;BME280;24180;42.676;23.320;2024-01-07T12:37:45;93075.78;;;10.10;66.24
38400;BME280;24180;42.676;23.320;2024-01-07T12:40:11;93079.50;;;10.19;65.79
38400;BME280;24180;42.676;23.320;2024-01-07T12:42:38;93082.56;;;10.39;66.30
38400;BME280;24180;42.676;23.320;2024-01-07T12:45:10;93096.59;;;10.45;65.99
38400;BME280;24180;42.676;23.320;2024-01-07T12:47:36;93080.00;;;10.54;64.57
38400;BME280;24180;42.676;23.320;2024-01-07T12:50:01;93077.81;;;10.59;65.16
38400;BME280;24180;42.676;23.320;2024-01-07T12:52:27;93075.97;;;10.70;64.47
38400;BME280;24180;42.676;23.320;2024-01-07T12:54:53;93081.88;;;10.78;65.00